Time;durP1;ratioP1;P1;durP2;ratioP2;P2;SDS_P1;SDS_P2;PMS_P1;PMS_P2;Temp;Humidity;BMP_temperature;BMP_pressure;BME280_temperature;BME280_humidity;BME280_pressure;Samples;Min_cycle;Max_cycle;Signal;HPM_P1;HPM_P2
2023/04/24 00:03:20;;;;;;;12.05;8.95;;;8.10;99.90;;;;;;20740649;28;20025;-55
2023/04/24 00:13:22;;;;;;;12.63;9.18;;;8.10;99.90;;;;;;20740175;28;20056;-60
2023/04/24 00:23:24;;;;;;;13.50;9.57;;;8.00;99.90;;;;;;20739561;28;20037;-61
2023/04/24 00:33:25;;;;;;;12.73;8.23;;;8.00;99.90;;;;;;20738793;28;20550;-60
2023/04/24 00:43:27;;;;;;;11.13;7.53;;;7.90;99.90;;;;;;20739017;28;20036;-55
2023/04/24 00:53:28;;;;;;;7.97;5.90;;;7.80;99.90;;;;;;20740496;28;20096;-56
2023/04/24 01:03:31;;;;;;;10.27;6.53;;;7.70;99.90;;;;;;20753826;28;20034;-55
2023/04/24 01:13:34;;;;;;;8.50;6.32;;;7.70;99.90;;;;;;20754134;28;20458;-60
2023/04/24 01:23:35;;;;;;;11.25;7.88;;;7.70;99.90;;;;;;20735659;28;20103;-60
2023/04/24 01:33:37;;;;;;;11.70;7.50;;;7.70;99.90;;;;;;20750741;28;20034;-54
2023/04/24 01:43:39;;;;;;;9.73;6.70;;;7.70;99.90;;;;;;20751415;28;20069;-55
2023/04/24 01:53:40;;;;;;;11.52;7.63;;;7.60;99.90;;;;;;20751176;28;20030;-60
2023/04/24 02:03:44;;;;;;;9.93;7.18;;;7.60;99.90;;;;;;20748579;28;20044;-52
2023/04/24 02:13:46;;;;;;;11.35;8.02;;;7.50;99.90;;;;;;20748453;28;20057;-60
2023/04/24 02:23:48;;;;;;;11.13;6.95;;;7.30;99.90;;;;;;20749181;28;20034;-50
2023/04/24 02:33:49;;;;;;;17.50;7.97;;;7.20;99.90;;;;;;20746391;28;20034;-50
2023/04/24 02:43:51;;;;;;;12.77;9.25;;;7.20;99.90;;;;;;20746930;28;20530;-61
2023/04/24 02:53:53;;;;;;;15.68;9.98;;;7.20;99.90;;;;;;20747414;28;20033;-51
2023/04/24 03:03:55;;;;;;;12.77;9.35;;;7.20;99.90;;;;;;20744444;28;20037;-62
2023/04/24 03:13:56;;;;;;;205.00;10.27;;;7.20;99.90;;;;;;20742602;28;20042;-48
2023/04/24 03:23:58;;;;;;;451.63;15.48;;;7.20;99.90;;;;;;20743355;28;20033;-63
2023/04/24 03:34:00;;;;;;;12.70;2.15;;;7.20;99.90;;;;;;20743220;28;20049;-50
2023/04/24 03:44:03;;;;;;;20.02;2.20;;;7.20;99.90;;;;;;20740935;28;20037;-63
2023/04/24 03:54:05;;;;;;;2.28;1.80;;;7.10;99.90;;;;;;20724240;28;20037;-63
2023/04/24 04:04:10;;;;;;;19.60;1.50;;;7.10;99.90;;;;;;20739400;28;20471;-50
2023/04/24 04:14:13;;;;;;;170.88;6.00;;;7.10;99.90;;;;;;20739222;28;20042;-51
2023/04/24 04:24:17;;;;;;;136.07;4.97;;;7.10;99.90;;;;;;20738920;28;20605;-48
2023/04/24 04:34:22;;;;;;;66.28;2.45;;;7.20;99.90;;;;;;20737356;28;20414;-49
2023/04/24 04:44:25;;;;;;;0.30;0.20;;;7.10;99.90;;;;;;20737502;28;20080;-48
2023/04/24 04:54:27;;;;;;;0.00;0.00;;;7.10;99.90;;;;;;20737196;28;20197;-46
2023/04/24 05:04:31;;;;;;;0.00;0.00;;;5.70;99.90;;;;;;20737019;28;20472;-60
2023/04/24 05:14:32;;;;;;;0.00;0.00;;;5.40;99.90;;;;;;20736199;28;20050;-48
2023/04/24 05:24:39;;;;;;;0.30;0.00;;;5.30;99.90;;;;;;20736287;28;20048;-60
2023/04/24 05:34:41;;;;;;;0.10;0.10;;;5.30;99.90;;;;;;20736490;28;20026;-51
2023/04/24 05:44:44;;;;;;;0.08;0.03;;;5.50;99.90;;;;;;20729295;28;20434;-47
2023/04/24 05:54:46;;;;;;;0.10;0.00;;;5.60;99.90;;;;;;20751034;28;20037;-46
2023/04/24 06:04:53;;;;;;;0.22;0.00;;;5.70;99.90;;;;;;20783906;28;20029;-46
2023/04/24 06:14:55;;;;;;;0.55;0.00;;;5.90;99.90;;;;;;20753786;28;20045;-49
2023/04/24 06:25:19;;;;;;;0.35;0.00;;;5.90;99.90;;;;;;20657941;28;20058;-47
2023/04/24 06:35:20;;;;;;;0.15;0.00;;;5.40;99.90;;;;;;20695196;28;20510;-49
2023/04/24 06:45:22;;;;;;;0.43;0.00;;;5.10;99.90;;;;;;20660109;28;20101;-46
2023/04/24 06:55:24;;;;;;;0.00;0.00;;;5.10;99.90;;;;;;20671697;28;20048;-51
2023/04/24 07:05:25;;;;;;;0.00;0.00;;;5.10;99.90;;;;;;20745242;28;20026;-51
2023/04/24 07:15:27;;;;;;;0.00;0.00;;;5.10;99.90;;;;;;20744183;28;20038;-47
2023/04/24 07:25:29;;;;;;;0.43;0.00;;;5.30;99.90;;;;;;20744130;28;20030;-50
2023/04/24 07:35:31;;;;;;;0.00;0.00;;;5.40;99.90;;;;;;20740974;28;20030;-50
2023/04/24 07:45:35;;;;;;;0.00;0.00;;;5.40;99.90;;;;;;20743199;28;20442;-48
2023/04/24 07:55:37;;;;;;;0.00;0.00;;;5.70;99.90;;;;;;20742041;28;20060;-57
2023/04/24 08:05:41;;;;;;;0.00;0.00;;;6.30;99.90;;;;;;20741049;28;20430;-48
2023/04/24 08:15:43;;;;;;;0.10;0.00;;;6.80;99.90;;;;;;20740002;28;20477;-50
2023/04/24 08:25:44;;;;;;;0.00;0.00;;;7.00;99.90;;;;;;20739616;28;20034;-58
2023/04/24 08:35:46;;;;;;;0.00;0.00;;;7.60;99.90;;;;;;20740231;28;20475;-48
2023/04/24 08:45:48;;;;;;;0.00;0.00;;;8.10;99.90;;;;;;20738979;28;20472;-51
2023/04/24 08:55:51;;;;;;;0.00;0.00;;;8.60;99.90;;;;;;20738801;28;20077;-51
2023/04/24 09:05:54;;;;;;;0.00;0.00;;;9.70;99.90;;;;;;20739153;28;20030;-51
2023/04/24 09:15:57;;;;;;;0.13;0.00;;;10.10;99.90;;;;;;20741641;28;20088;-50
2023/04/24 09:26:00;;;;;;;0.00;0.00;;;10.60;99.90;;;;;;20754417;28;20096;-52
2023/04/24 09:36:03;;;;;;;0.52;0.00;;;10.70;99.90;;;;;;20752669;28;20030;-51
2023/04/24 09:46:08;;;;;;;0.10;0.10;;;11.70;99.90;;;;;;20750983;28;20038;-63
2023/04/24 09:56:12;;;;;;;0.10;0.08;;;12.50;99.90;;;;;;20750748;28;20042;-52
2023/04/24 10:06:15;;;;;;;0.05;0.03;;;13.20;99.90;;;;;;20750181;28;20041;-50
2023/04/24 10:16:17;;;;;;;0.00;0.00;;;13.80;99.90;;;;;;20748877;28;20443;-62
2023/04/24 10:26:20;;;;;;;0.03;0.00;;;14.20;99.90;;;;;;20747667;28;20064;-49
2023/04/24 10:36:23;;;;;;;0.00;0.00;;;14.80;99.90;;;;;;20747390;28;20080;-50
2023/04/24 10:46:29;;;;;;;0.35;0.00;;;14.60;99.90;;;;;;20746875;28;20038;-50
2023/04/24 10:56:33;;;;;;;0.05;0.00;;;14.80;99.90;;;;;;20746366;28;20038;-52
2023/04/24 11:06:36;;;;;;;0.10;0.00;;;15.10;99.90;;;;;;20745062;28;20052;-52
2023/04/24 11:16:44;;;;;;;0.00;0.00;;;15.50;99.90;;;;;;20744523;28;20466;-62
2023/04/24 13:37:42;;;;;;;0.47;0.00;;;15.10;98.70;;;;;;25897432;22;1464368;-63
2023/04/24 13:47:45;;;;;;;0.10;0.10;;;17.60;99.20;;;;;;25997448;22;20003;-55
2023/04/24 13:57:47;;;;;;;0.57;0.10;;;18.10;94.10;;;;;;25997270;22;20008;-64
2023/04/24 14:07:49;;;;;;;0.13;0.00;;;17.90;96.40;;;;;;25997335;22;20007;-64
2023/04/24 14:17:50;;;;;;;0.13;0.10;;;18.40;95.60;;;;;;25999500;22;20007;-66
2023/04/24 14:27:52;;;;;;;0.00;0.00;;;17.10;95.20;;;;;;25994976;22;20000;-61
2023/04/24 14:37:54;;;;;;;1.27;0.10;;;16.20;94.90;;;;;;26012839;22;20031;-50
2023/04/24 14:47:57;;;;;;;0.20;0.10;;;15.40;95.30;;;;;;25968141;22;20192;-62
2023/04/24 14:57:59;;;;;;;0.70;0.40;;;15.20;97.90;;;;;;25969473;22;19999;-63
2023/04/24 15:08:00;;;;;;;0.70;0.52;;;14.20;99.90;;;;;;25967471;22;19999;-62
2023/04/24 15:18:02;;;;;;;1.55;0.80;;;13.60;99.90;;;;;;25967437;22;20493;-51
2023/04/24 15:28:05;;;;;;;0.90;0.30;;;13.30;99.90;;;;;;25965176;22;20008;-63
2023/04/24 15:38:07;;;;;;;3.78;2.75;;;12.50;99.90;;;;;;26008749;22;20511;-60
2023/04/24 15:48:09;;;;;;;3.97;2.50;;;12.30;99.90;;;;;;25965765;22;20011;-53
2023/04/24 15:58:10;;;;;;;2.55;1.63;;;11.90;99.90;;;;;;25963659;22;20394;-54
2023/04/24 16:08:14;;;;;;;4.25;2.40;;;11.40;99.90;;;;;;25964101;22;20026;-54
2023/04/24 16:18:16;;;;;;;2.47;2.08;;;11.30;99.90;;;;;;25962461;22;20065;-62
2023/04/24 16:28:18;;;;;;;5.18;3.60;;;11.40;99.90;;;;;;25964043;22;20035;-62
2023/04/24 16:38:19;;;;;;;4.13;3.33;;;11.80;99.90;;;;;;26005025;22;19999;-62
2023/04/24 16:48:21;;;;;;;2.50;1.70;;;12.00;99.90;;;;;;25961475;22;20003;-62
2023/04/24 16:58:23;;;;;;;5.40;2.33;;;11.50;99.90;;;;;;25963160;22;20323;-62
2023/04/24 17:08:24;;;;;;;2.83;2.30;;;10.90;99.90;;;;;;25963060;22;20023;-62
2023/04/24 17:18:26;;;;;;;3.35;2.20;;;10.90;99.90;;;;;;25960983;22;20016;-62
2023/04/24 17:28:30;;;;;;;3.17;1.90;;;10.80;99.90;;;;;;25962102;22;20385;-62
2023/04/24 17:38:32;;;;;;;4.22;2.10;;;10.80;99.90;;;;;;25959676;22;20004;-61
2023/04/24 17:48:34;;;;;;;2.88;1.80;;;10.40;99.90;;;;;;25962250;22;20008;-61
2023/04/24 17:58:36;;;;;;;2.67;1.17;;;9.80;99.90;;;;;;25962292;22;20249;-61
2023/04/24 18:08:38;;;;;;;1.88;0.80;;;9.40;99.90;;;;;;25965557;22;20007;-61
2023/04/24 18:18:40;;;;;;;1.60;1.00;;;9.10;99.90;;;;;;25969910;22;20038;-53
2023/04/24 18:28:42;;;;;;;2.15;0.73;;;8.60;99.90;;;;;;25967216;22;20381;-60
2023/04/24 18:38:44;;;;;;;1.50;0.70;;;8.10;99.90;;;;;;25968140;22;20006;-60
2023/04/24 18:48:46;;;;;;;2.53;0.68;;;7.50;99.90;;;;;;25968532;22;20049;-60
2023/04/24 18:58:48;;;;;;;1.17;0.40;;;6.80;99.90;;;;;;25968238;22;20442;-54
2023/04/24 19:08:50;;;;;;;2.15;1.10;;;6.40;99.90;;;;;;25966417;22;20003;-60
2023/04/24 19:18:52;;;;;;;3.85;2.70;;;6.50;99.90;;;;;;25967523;22;20004;-50
2023/04/24 19:28:56;;;;;;;4.00;2.38;;;6.80;99.90;;;;;;25965205;22;20509;-60
2023/04/24 19:38:58;;;;;;;6.22;3.20;;;6.20;99.90;;;;;;25967129;22;20015;-52
2023/04/24 19:49:00;;;;;;;4.68;3.15;;;5.70;99.90;;;;;;25966413;22;20054;-61
2023/04/24 19:59:01;;;;;;;5.05;3.40;;;5.30;99.90;;;;;;25966075;22;20003;-60
2023/04/24 20:09:06;;;;;;;7.95;3.90;;;5.10;99.90;;;;;;25965600;22;20052;-60
2023/04/24 20:19:07;;;;;;;8.23;4.82;;;5.00;99.90;;;;;;25964968;22;20003;-61
2023/04/24 20:29:10;;;;;;;7.95;5.15;;;4.70;99.90;;;;;;25963881;22;20007;-60
2023/04/24 20:39:12;;;;;;;10.55;5.90;;;4.80;99.90;;;;;;25964433;22;20323;-61
2023/04/24 20:49:14;;;;;;;6.82;4.40;;;4.60;99.90;;;;;;25962160;22;20066;-61
2023/04/24 20:59:16;;;;;;;7.40;4.88;;;4.30;99.90;;;;;;25963632;22;20000;-61
2023/04/24 21:09:17;;;;;;;6.88;4.13;;;4.10;99.90;;;;;;25962834;22;20073;-61
2023/04/24 21:19:19;;;;;;;5.35;3.50;;;3.90;99.90;;;;;;25963315;22;20004;-61
2023/04/24 21:29:21;;;;;;;6.00;4.05;;;4.00;99.90;;;;;;25960533;22;20339;-61
2023/04/24 21:39:23;;;;;;;8.98;6.30;;;4.10;99.90;;;;;;25962645;22;20007;-61
2023/04/24 21:49:25;;;;;;;6.03;4.30;;;4.30;99.90;;;;;;25968649;22;20089;-61
2023/04/24 21:59:27;;;;;;;7.05;4.88;;;4.40;99.90;;;;;;25972469;22;20343;-61
2023/04/24 22:09:29;;;;;;;8.77;5.63;;;4.40;99.90;;;;;;25971887;22;20003;-61
2023/04/24 22:19:31;;;;;;;8.15;5.45;;;4.50;99.90;;;;;;25971625;22;20004;-61
2023/04/24 22:29:32;;;;;;;9.32;6.10;;;4.50;99.90;;;;;;25969220;22;20016;-61
2023/04/24 22:39:34;;;;;;;13.57;7.97;;;4.40;99.90;;;;;;25970952;22;20022;-61
2023/04/24 22:49:36;;;;;;;7.95;5.53;;;4.30;99.90;;;;;;25970629;22;20004;-48
2023/04/24 22:59:41;;;;;;;10.65;6.35;;;4.10;99.90;;;;;;25970087;22;20007;-61
2023/04/24 23:09:42;;;;;;;6.15;4.20;;;4.10;99.90;;;;;;25969731;22;20004;-61
2023/04/24 23:19:44;;;;;;;6.90;4.53;;;3.80;99.90;;;;;;25969307;22;20053;-61
2023/04/24 23:29:46;;;;;;;7.30;3.80;;;3.70;99.90;;;;;;25968666;22;20007;-61
2023/04/24 23:39:48;;;;;;;3.95;2.72;;;3.80;99.90;;;;;;25968382;22;20042;-61
2023/04/24 23:49:50;;;;;;;2.20;1.60;;;3.70;99.90;;;;;;25967729;22;20078;-61
2023/04/24 23:59:51;;;;;;;1.80;0.90;;;3.50;99.90;;;;;;25967464;22;20016;-61
